Time;durP1;ratioP1;P1;durP2;ratioP2;P2;SDS_P1;SDS_P2;PMS_P1;PMS_P2;Temp;Humidity;BMP_temperature;BMP_pressure;BME280_temperature;BME280_humidity;BME280_pressure;Samples;Min_cycle;Max_cycle;Signal;HPM_P1;HPM_P2
2020/12/29 00:01:01;;;;;;;0.60;0.50;;;2.50;99.90;;;;;;5014454;28;20422;-71
2020/12/29 00:03:27;;;;;;;1.00;0.90;;;2.50;99.90;;;;;;5013919;28;20442;-71
2020/12/29 00:05:53;;;;;;;0.60;0.60;;;2.50;99.90;;;;;;5013978;28;20437;-71
2020/12/29 00:08:19;;;;;;;2.63;0.63;;;2.50;99.90;;;;;;5014178;28;20454;-71
2020/12/29 00:10:45;;;;;;;0.70;0.63;;;2.40;99.90;;;;;;5013503;28;20497;-71
2020/12/29 00:13:12;;;;;;;0.60;0.60;;;2.40;99.90;;;;;;5013759;28;20438;-71
2020/12/29 00:15:40;;;;;;;0.70;0.70;;;2.40;99.90;;;;;;5013686;28;20968;-70
2020/12/29 00:18:06;;;;;;;0.50;0.50;;;2.40;99.90;;;;;;5013995;28;20456;-71
2020/12/29 00:20:32;;;;;;;1.17;0.80;;;2.40;99.90;;;;;;5013848;28;20512;-71
2020/12/29 00:22:59;;;;;;;0.60;0.60;;;2.40;99.90;;;;;;5013979;28;20459;-71
2020/12/29 00:25:25;;;;;;;0.60;0.60;;;2.40;99.90;;;;;;5013983;28;20448;-71
2020/12/29 00:27:51;;;;;;;0.70;0.70;;;2.40;99.90;;;;;;5013882;28;20454;-70
2020/12/29 00:30:18;;;;;;;0.50;0.50;;;2.40;99.90;;;;;;5013624;28;20448;-70
2020/12/29 00:32:44;;;;;;;0.50;0.50;;;2.40;99.90;;;;;;5013808;28;20467;-70
2020/12/29 00:35:10;;;;;;;0.70;0.67;;;2.40;99.90;;;;;;5013898;28;20445;-71
2020/12/29 00:37:37;;;;;;;0.70;0.70;;;2.40;99.90;;;;;;5013514;28;20793;-71
2020/12/29 00:40:04;;;;;;;0.73;0.73;;;2.30;99.90;;;;;;5013451;28;20430;-71
2020/12/29 00:42:33;;;;;;;0.60;0.60;;;2.30;99.90;;;;;;5013636;28;20446;-71
2020/12/29 00:44:59;;;;;;;0.70;0.70;;;2.40;99.90;;;;;;5013731;28;20461;-71
2020/12/29 00:47:26;;;;;;;0.70;0.70;;;2.60;99.90;;;;;;5013612;28;20479;-70
2020/12/29 00:49:53;;;;;;;1.03;0.60;;;2.70;99.90;;;;;;5013296;28;20909;-70
2020/12/29 00:52:19;;;;;;;1.10;0.80;;;2.70;99.90;;;;;;5013537;28;20514;-70
2020/12/29 00:54:45;;;;;;;0.93;0.87;;;2.60;99.90;;;;;;5013551;28;20444;-71
2020/12/29 00:57:11;;;;;;;0.77;0.77;;;2.60;99.90;;;;;;5013519;28;20447;-71
2020/12/29 00:59:37;;;;;;;0.60;0.60;;;2.60;99.90;;;;;;5013460;28;20414;-72
2020/12/29 01:02:03;;;;;;;2.30;0.70;;;2.40;99.90;;;;;;5013442;28;20494;-72
2020/12/29 01:04:30;;;;;;;0.80;0.70;;;2.30;99.90;;;;;;5013485;28;20890;-71
2020/12/29 01:06:57;;;;;;;0.77;0.77;;;2.20;99.90;;;;;;5013362;28;20444;-71
2020/12/29 01:09:23;;;;;;;0.67;0.67;;;2.20;99.90;;;;;;5013411;28;20900;-71
2020/12/29 01:11:50;;;;;;;1.43;0.90;;;2.10;99.90;;;;;;5013338;28;20437;-71
2020/12/29 01:14:16;;;;;;;1.10;0.80;;;2.00;99.90;;;;;;5013487;28;20885;-71
2020/12/29 01:16:45;;;;;;;0.93;0.93;;;2.00;99.90;;;;;;5013431;28;20422;-70
2020/12/29 01:19:12;;;;;;;0.80;0.80;;;2.00;99.90;;;;;;5013394;28;20417;-70
2020/12/29 01:21:39;;;;;;;0.70;0.70;;;2.00;99.90;;;;;;5014558;28;20471;-71
2020/12/29 01:24:05;;;;;;;1.00;0.90;;;2.00;99.90;;;;;;5016995;28;20825;-72
2020/12/29 01:26:31;;;;;;;0.80;0.80;;;2.00;99.90;;;;;;5017279;28;20432;-71
2020/12/29 01:28:57;;;;;;;1.20;1.10;;;1.90;99.90;;;;;;5017176;28;20506;-71
2020/12/29 01:31:27;;;;;;;1.00;1.00;;;2.00;99.90;;;;;;5017135;28;20418;-71
2020/12/29 01:33:54;;;;;;;0.80;0.80;;;2.00;99.90;;;;;;5017272;28;20467;-70
2020/12/29 01:36:21;;;;;;;0.73;0.73;;;2.00;99.90;;;;;;5017078;28;20473;-71
2020/12/29 01:38:48;;;;;;;0.73;0.73;;;2.10;99.90;;;;;;5017030;28;20439;-70
2020/12/29 01:41:14;;;;;;;0.70;0.70;;;2.10;99.90;;;;;;5017015;28;20466;-71
2020/12/29 01:43:40;;;;;;;0.60;0.60;;;2.10;99.90;;;;;;5016907;28;20467;-71
2020/12/29 01:46:07;;;;;;;0.73;0.73;;;2.10;99.90;;;;;;5016649;28;20447;-71
2020/12/29 01:48:33;;;;;;;1.00;0.90;;;2.20;99.90;;;;;;5016819;28;20449;-71
2020/12/29 01:50:59;;;;;;;1.03;1.03;;;2.10;99.90;;;;;;5016546;28;20458;-71
2020/12/29 01:53:25;;;;;;;1.10;0.87;;;2.10;99.90;;;;;;5016734;28;20518;-71
2020/12/29 01:55:52;;;;;;;3.63;0.60;;;2.20;99.90;;;;;;5016459;28;20951;-71
2020/12/29 01:58:19;;;;;;;0.70;0.70;;;2.20;99.90;;;;;;5016664;28;20534;-70
2020/12/29 02:00:46;;;;;;;0.60;0.60;;;2.20;99.90;;;;;;5016298;28;20993;-70
2020/12/29 02:03:15;;;;;;;0.60;0.60;;;2.30;99.90;;;;;;5016468;28;20471;-70
2020/12/29 02:05:45;;;;;;;0.80;0.80;;;2.30;99.90;;;;;;5016182;28;20951;-70
2020/12/29 02:08:12;;;;;;;0.50;0.50;;;2.40;99.90;;;;;;5016489;28;20438;-71
2020/12/29 02:10:40;;;;;;;0.50;0.50;;;2.40;99.90;;;;;;5016446;28;20410;-71
2020/12/29 02:13:07;;;;;;;0.60;0.60;;;2.40;99.90;;;;;;5016312;28;20470;-71
2020/12/29 02:15:33;;;;;;;0.90;0.63;;;2.40;99.90;;;;;;5016320;28;20458;-71
2020/12/29 02:17:59;;;;;;;0.50;0.50;;;2.30;99.90;;;;;;5016263;28;20418;-71
2020/12/29 02:20:25;;;;;;;0.53;0.50;;;2.40;99.90;;;;;;5015993;28;20499;-71
2020/12/29 02:22:52;;;;;;;0.57;0.57;;;2.40;99.90;;;;;;5016182;28;20471;-71
2020/12/29 02:25:18;;;;;;;1.73;0.60;;;2.50;99.90;;;;;;5016152;28;20825;-71
2020/12/29 02:27:47;;;;;;;0.53;0.53;;;2.50;99.90;;;;;;5016367;28;20438;-71
2020/12/29 02:30:14;;;;;;;0.87;0.60;;;2.40;99.90;;;;;;5015764;28;20988;-71
2020/12/29 02:32:40;;;;;;;0.50;0.50;;;2.50;99.90;;;;;;5015112;28;20460;-71
2020/12/29 02:35:08;;;;;;;0.50;0.50;;;2.50;99.90;;;;;;5015913;28;20431;-71
2020/12/29 02:37:34;;;;;;;0.60;0.60;;;2.50;99.90;;;;;;5015914;28;20522;-71
2020/12/29 02:40:01;;;;;;;0.60;0.60;;;2.50;99.90;;;;;;5015872;28;20429;-71
2020/12/29 02:42:27;;;;;;;0.50;0.50;;;2.40;99.90;;;;;;5015826;28;20464;-71
2020/12/29 02:44:53;;;;;;;0.50;0.50;;;2.50;99.90;;;;;;5015780;28;20447;-71
2020/12/29 02:47:20;;;;;;;0.50;0.50;;;2.50;99.90;;;;;;5015791;28;20456;-71
2020/12/29 02:49:46;;;;;;;0.47;0.47;;;2.50;99.90;;;;;;5015661;28;20475;-71
2020/12/29 02:52:12;;;;;;;0.50;0.50;;;2.50;99.90;;;;;;5015632;28;20541;-71
2020/12/29 02:54:38;;;;;;;0.60;0.50;;;2.60;99.90;;;;;;5015598;28;20448;-71
2020/12/29 02:57:05;;;;;;;0.67;0.67;;;2.60;99.90;;;;;;5015561;28;20455;-71
2020/12/29 02:59:31;;;;;;;0.40;0.40;;;2.60;99.90;;;;;;5015523;28;20439;-71
2020/12/29 03:01:58;;;;;;;0.70;0.50;;;2.60;99.90;;;;;;5015099;28;21026;-71
2020/12/29 03:04:25;;;;;;;0.40;0.37;;;2.60;99.90;;;;;;5015412;28;20448;-71
2020/12/29 03:06:51;;;;;;;0.60;0.50;;;2.50;99.90;;;;;;5015376;28;20447;-71
2020/12/29 03:09:17;;;;;;;0.40;0.40;;;2.50;99.90;;;;;;5015240;28;20461;-71
2020/12/29 03:11:44;;;;;;;0.40;0.40;;;2.50;99.90;;;;;;5014920;28;20455;-71
2020/12/29 03:14:12;;;;;;;0.70;0.50;;;2.50;99.90;;;;;;5015205;28;20451;-71
2020/12/29 03:16:38;;;;;;;0.40;0.40;;;2.50;99.90;;;;;;5015230;28;20501;-71
2020/12/29 03:19:05;;;;;;;0.60;0.40;;;2.50;99.90;;;;;;5015081;28;20447;-71
2020/12/29 03:21:31;;;;;;;0.40;0.40;;;2.50;99.90;;;;;;5014623;28;20486;-71
2020/12/29 03:23:57;;;;;;;0.40;0.40;;;2.50;99.90;;;;;;5015040;28;20458;-71
2020/12/29 03:26:25;;;;;;;0.50;0.40;;;2.40;99.90;;;;;;5014978;28;20458;-71
2020/12/29 03:28:52;;;;;;;0.50;0.50;;;2.30;99.90;;;;;;5014860;28;20520;-71
2020/12/29 03:31:19;;;;;;;0.40;0.40;;;2.30;99.90;;;;;;5014614;28;20969;-71
2020/12/29 03:33:45;;;;;;;0.40;0.40;;;2.20;99.90;;;;;;5014556;28;20464;-71
2020/12/29 03:36:12;;;;;;;0.40;0.40;;;2.20;99.90;;;;;;5014832;28;20502;-71
2020/12/29 03:38:38;;;;;;;0.67;0.50;;;2.20;99.90;;;;;;5014793;28;20444;-71
2020/12/29 03:41:04;;;;;;;0.40;0.40;;;2.20;99.90;;;;;;5014772;28;20460;-71
2020/12/29 03:43:31;;;;;;;0.53;0.50;;;2.20;99.90;;;;;;5014631;28;20482;-71
2020/12/29 03:45:57;;;;;;;1.50;0.50;;;2.30;99.90;;;;;;5013652;28;20448;-71
2020/12/29 03:48:25;;;;;;;0.40;0.40;;;2.30;99.90;;;;;;5014515;28;20533;-71
2020/12/29 03:50:52;;;;;;;0.50;0.50;;;2.30;99.90;;;;;;5014577;28;20448;-71
2020/12/29 03:53:18;;;;;;;0.50;0.40;;;2.30;99.90;;;;;;5014816;28;20446;-71
2020/12/29 03:55:44;;;;;;;0.37;0.33;;;2.40;99.90;;;;;;5014441;28;20478;-71
2020/12/29 03:58:11;;;;;;;0.40;0.40;;;2.40;99.90;;;;;;5014382;28;20523;-71
2020/12/29 04:00:37;;;;;;;0.40;0.40;;;2.30;99.90;;;;;;5014304;28;20452;-71
2020/12/29 04:03:03;;;;;;;1.00;0.40;;;2.40;99.90;;;;;;5014281;28;20474;-71
2020/12/29 04:05:31;;;;;;;0.60;0.50;;;2.40;99.90;;;;;;5014239;28;20453;-71
2020/12/29 04:07:57;;;;;;;0.73;0.40;;;2.30;99.90;;;;;;5013972;28;21006;-70
2020/12/29 04:10:24;;;;;;;0.40;0.40;;;2.40;99.90;;;;;;5013973;28;20443;-70
2020/12/29 04:12:50;;;;;;;0.53;0.40;;;2.40;99.90;;;;;;5014158;28;20490;-71
2020/12/29 04:15:16;;;;;;;0.40;0.40;;;2.40;99.90;;;;;;5014242;28;20443;-71
2020/12/29 04:17:44;;;;;;;0.40;0.40;;;2.30;99.90;;;;;;5013866;28;20458;-72
2020/12/29 04:20:11;;;;;;;0.60;0.40;;;2.40;99.90;;;;;;5013906;28;20564;-71
2020/12/29 04:22:40;;;;;;;0.40;0.40;;;2.40;99.90;;;;;;5013761;28;20979;-71
2020/12/29 04:25:08;;;;;;;0.50;0.47;;;2.30;99.90;;;;;;5013755;28;20966;-71
2020/12/29 04:27:36;;;;;;;0.40;0.40;;;2.30;99.90;;;;;;5014024;28;20451;-71
2020/12/29 04:30:03;;;;;;;0.40;0.40;;;2.40;99.90;;;;;;5013931;28;20550;-71
2020/12/29 04:32:29;;;;;;;0.40;0.40;;;2.30;99.90;;;;;;5013831;28;20471;-71
2020/12/29 04:34:55;;;;;;;0.50;0.40;;;2.40;99.90;;;;;;5013924;28;20447;-71
2020/12/29 04:37:21;;;;;;;0.90;0.47;;;2.30;99.90;;;;;;5013858;28;20448;-70
2020/12/29 04:39:48;;;;;;;1.33;0.40;;;2.30;99.90;;;;;;5013772;28;20443;-71
2020/12/29 04:42:15;;;;;;;1.47;0.50;;;2.40;99.90;;;;;;5013463;28;20526;-70
2020/12/29 04:44:43;;;;;;;1.27;0.40;;;2.40;99.90;;;;;;5013781;28;20473;-70
2020/12/29 04:47:10;;;;;;;0.47;0.47;;;2.50;99.90;;;;;;5005785;28;20443;-71
2020/12/29 04:49:37;;;;;;;0.40;0.40;;;2.50;99.90;;;;;;5013663;28;20479;-71
2020/12/29 04:52:05;;;;;;;0.60;0.40;;;2.40;99.90;;;;;;5013323;28;20478;-71
2020/12/29 04:54:33;;;;;;;0.70;0.40;;;2.50;99.90;;;;;;5013647;28;20803;-71
2020/12/29 04:57:01;;;;;;;0.60;0.40;;;2.50;99.90;;;;;;5013319;28;20807;-71
2020/12/29 04:59:28;;;;;;;0.50;0.40;;;2.50;99.90;;;;;;5013298;28;20443;-71
2020/12/29 05:01:55;;;;;;;0.60;0.40;;;2.60;99.90;;;;;;5013498;28;20506;-71
2020/12/29 05:04:21;;;;;;;0.50;0.50;;;2.60;99.90;;;;;;5013436;28;20459;-71
2020/12/29 05:06:48;;;;;;;0.50;0.40;;;2.50;99.90;;;;;;5013554;28;20481;-70
2020/12/29 05:09:14;;;;;;;0.40;0.40;;;2.50;99.90;;;;;;5013126;28;20461;-70
2020/12/29 05:11:40;;;;;;;0.97;0.50;;;2.50;99.90;;;;;;5013413;28;20457;-70
2020/12/29 05:14:08;;;;;;;2.10;0.50;;;2.40;99.90;;;;;;5013462;28;20459;-70
2020/12/29 05:16:37;;;;;;;2.47;0.40;;;2.50;99.90;;;;;;5013142;28;20447;-70
2020/12/29 05:19:08;;;;;;;0.40;0.40;;;2.50;99.90;;;;;;5013387;28;20448;-71
2020/12/29 05:21:36;;;;;;;0.40;0.40;;;2.50;99.90;;;;;;5012904;28;20479;-71
2020/12/29 05:24:10;;;;;;;0.60;0.40;;;2.50;99.90;;;;;;5013040;28;20494;-71
2020/12/29 05:26:38;;;;;;;0.43;0.40;;;2.50;99.90;;;;;;5013007;28;20981;-71
2020/12/29 05:29:07;;;;;;;1.67;0.40;;;2.40;99.90;;;;;;5013229;28;20479;-70
2020/12/29 05:31:34;;;;;;;0.40;0.40;;;2.50;99.90;;;;;;5013213;28;20829;-71
2020/12/29 05:34:01;;;;;;;1.60;0.40;;;2.50;99.90;;;;;;5013272;28;20454;-71
2020/12/29 05:36:27;;;;;;;0.50;0.40;;;2.50;99.90;;;;;;5012923;28;20966;-71
2020/12/29 05:39:03;;;;;;;2.40;0.40;;;2.50;99.90;;;;;;5013204;28;20474;-71
2020/12/29 05:41:30;;;;;;;0.40;0.40;;;2.40;99.90;;;;;;5013227;28;20417;-70
2020/12/29 05:44:01;;;;;;;0.40;0.40;;;2.40;99.90;;;;;;5012895;28;20447;-70
2020/12/29 05:46:30;;;;;;;0.40;0.40;;;2.40;99.90;;;;;;5013181;28;20466;-70
2020/12/29 05:48:56;;;;;;;0.40;0.30;;;2.40;99.90;;;;;;5012744;28;21057;-70
2020/12/29 05:51:24;;;;;;;1.33;0.40;;;2.40;99.90;;;;;;5013126;28;20443;-70
2020/12/29 05:53:57;;;;;;;4.00;0.50;;;2.40;99.90;;;;;;5013032;28;20518;-71
2020/12/29 05:56:23;;;;;;;1.90;0.50;;;2.40;99.90;;;;;;5013126;28;20403;-71
2020/12/29 05:58:50;;;;;;;0.60;0.40;;;2.30;99.90;;;;;;5012993;28;20417;-71
2020/12/29 06:01:16;;;;;;;1.10;0.50;;;2.30;99.90;;;;;;5013019;28;20493;-71
2020/12/29 06:03:45;;;;;;;1.17;0.40;;;2.40;99.90;;;;;;5012969;28;20467;-71
2020/12/29 06:06:14;;;;;;;0.50;0.50;;;2.40;99.90;;;;;;5013611;28;20421;-71
2020/12/29 06:08:42;;;;;;;0.50;0.50;;;2.30;99.90;;;;;;5014321;28;20479;-71
2020/12/29 06:11:13;;;;;;;0.40;0.40;;;2.30;99.90;;;;;;5016598;28;20434;-71
2020/12/29 06:13:47;;;;;;;0.77;0.47;;;2.30;99.90;;;;;;5016505;28;20467;-71
2020/12/29 06:16:16;;;;;;;0.73;0.53;;;2.30;99.90;;;;;;5016431;28;20436;-71
2020/12/29 06:18:46;;;;;;;0.40;0.40;;;2.30;99.90;;;;;;5016430;28;20432;-71
2020/12/29 06:21:13;;;;;;;1.90;0.50;;;2.30;99.90;;;;;;5016022;28;20475;-71
2020/12/29 06:23:44;;;;;;;0.40;0.40;;;2.40;99.90;;;;;;5016225;28;20550;-71
2020/12/29 06:26:10;;;;;;;0.90;0.50;;;2.40;99.90;;;;;;5016317;28;20518;-71
2020/12/29 06:28:46;;;;;;;0.47;0.40;;;2.40;99.90;;;;;;5016134;28;20483;-71
2020/12/29 06:31:20;;;;;;;2.00;0.60;;;2.40;99.90;;;;;;5016170;28;20771;-71
2020/12/29 06:33:50;;;;;;;0.50;0.50;;;2.20;99.90;;;;;;5016095;28;20808;-71
2020/12/29 06:36:18;;;;;;;0.40;0.40;;;2.20;99.90;;;;;;5016008;28;20451;-70
2020/12/29 06:38:46;;;;;;;1.13;0.50;;;2.20;99.90;;;;;;5015666;28;20948;-71
2020/12/29 06:41:14;;;;;;;1.17;0.50;;;2.10;99.90;;;;;;5015932;28;20497;-71
2020/12/29 06:43:40;;;;;;;1.70;0.60;;;2.10;99.90;;;;;;5015855;28;20478;-70
2020/12/29 06:46:14;;;;;;;0.43;0.40;;;2.10;99.90;;;;;;5015860;28;20423;-70
2020/12/29 06:48:41;;;;;;;0.50;0.40;;;2.10;99.90;;;;;;5015413;28;20856;-70
2020/12/29 06:51:12;;;;;;;0.50;0.50;;;2.20;99.90;;;;;;5015515;28;20930;-70
2020/12/29 06:53:39;;;;;;;0.47;0.40;;;2.20;99.90;;;;;;5015677;28;20478;-71
2020/12/29 06:56:12;;;;;;;1.23;0.60;;;2.20;99.90;;;;;;5015374;28;20842;-71
2020/12/29 06:58:38;;;;;;;1.37;0.50;;;2.10;99.90;;;;;;5015325;28;20927;-70
2020/12/29 07:01:22;;;;;;;0.43;0.40;;;2.10;99.90;;;;;;5015454;28;20466;-71
2020/12/29 07:03:59;;;;;;;0.40;0.40;;;2.20;99.90;;;;;;5015021;28;20475;-70
2020/12/29 07:06:29;;;;;;;0.80;0.40;;;2.10;99.90;;;;;;5015164;28;21038;-71
2020/12/29 07:09:01;;;;;;;1.53;0.50;;;2.20;99.90;;;;;;5015302;28;20902;-71
2020/12/29 07:11:27;;;;;;;1.43;0.50;;;2.10;99.90;;;;;;5015329;28;20857;-71
2020/12/29 07:13:54;;;;;;;0.40;0.40;;;2.10;99.90;;;;;;5015115;28;20480;-71
2020/12/29 07:16:24;;;;;;;1.23;0.43;;;2.20;99.90;;;;;;5015202;28;20494;-71
2020/12/29 07:18:50;;;;;;;0.50;0.50;;;2.10;99.90;;;;;;5015016;28;20834;-71
2020/12/29 07:21:25;;;;;;;2.40;0.50;;;2.10;99.90;;;;;;5015075;28;20483;-71
2020/12/29 07:23:53;;;;;;;1.17;0.50;;;2.20;99.90;;;;;;5015051;28;21006;-74
2020/12/29 07:26:20;;;;;;;0.40;0.40;;;2.20;99.90;;;;;;5015103;28;20462;-71
2020/12/29 07:28:49;;;;;;;0.70;0.50;;;2.20;99.90;;;;;;5014954;28;20483;-71
2020/12/29 07:31:16;;;;;;;0.50;0.50;;;2.20;99.90;;;;;;5014960;28;20822;-71
2020/12/29 07:33:49;;;;;;;4.20;0.70;;;2.30;99.90;;;;;;5014791;28;20449;-70
2020/12/29 07:36:18;;;;;;;0.93;0.53;;;2.30;99.90;;;;;;5014928;28;20470;-71
2020/12/29 07:38:47;;;;;;;0.50;0.50;;;2.30;99.90;;;;;;5014818;28;20450;-71
2020/12/29 07:41:15;;;;;;;2.00;0.50;;;2.30;99.90;;;;;;5014807;28;20418;-70
2020/12/29 07:43:42;;;;;;;0.50;0.50;;;2.30;99.90;;;;;;5014324;28;20979;-71
2020/12/29 07:46:09;;;;;;;0.40;0.40;;;2.30;99.90;;;;;;5014455;28;20439;-71
2020/12/29 07:48:35;;;;;;;0.50;0.50;;;2.30;99.90;;;;;;5014534;28;20479;-70
2020/12/29 07:51:02;;;;;;;0.50;0.50;;;2.40;99.90;;;;;;5015365;28;20455;-71
2020/12/29 07:53:29;;;;;;;0.40;0.40;;;2.60;99.90;;;;;;5014437;28;20482;-71
2020/12/29 07:55:55;;;;;;;0.40;0.40;;;2.60;99.90;;;;;;5014453;28;20448;-70
2020/12/29 07:58:23;;;;;;;1.27;0.40;;;2.60;99.90;;;;;;5014431;28;20454;-71
2020/12/29 08:00:49;;;;;;;0.70;0.57;;;2.70;99.90;;;;;;5014355;28;20478;-71
2020/12/29 08:03:18;;;;;;;0.70;0.50;;;2.70;99.90;;;;;;5014358;28;20474;-71
2020/12/29 08:05:44;;;;;;;0.90;0.40;;;2.80;99.90;;;;;;5014269;28;20455;-71
2020/12/29 08:08:12;;;;;;;0.83;0.50;;;2.80;99.90;;;;;;5014002;28;20439;-71
2020/12/29 08:10:39;;;;;;;1.33;0.50;;;2.90;99.90;;;;;;5014199;28;20455;-71
2020/12/29 08:13:07;;;;;;;0.90;0.53;;;2.90;99.90;;;;;;5014192;28;20470;-71
2020/12/29 08:15:34;;;;;;;2.30;0.50;;;2.90;99.90;;;;;;5014286;28;20581;-71
2020/12/29 08:18:06;;;;;;;4.50;0.50;;;2.90;99.90;;;;;;5014191;28;20459;-71
2020/12/29 08:20:33;;;;;;;0.50;0.43;;;3.00;99.90;;;;;;5013707;28;20487;-71
2020/12/29 08:23:04;;;;;;;0.80;0.53;;;3.00;99.90;;;;;;5014029;28;20467;-71
2020/12/29 08:25:30;;;;;;;1.13;0.50;;;3.00;99.90;;;;;;5014004;28;20509;-71
2020/12/29 08:27:59;;;;;;;1.07;0.50;;;3.10;99.90;;;;;;5013761;28;20432;-71
2020/12/29 08:30:26;;;;;;;0.77;0.67;;;3.10;99.90;;;;;;5013689;28;20471;-71
2020/12/29 08:32:56;;;;;;;1.47;0.60;;;3.20;99.90;;;;;;5013644;28;20463;-71
2020/12/29 08:35:23;;;;;;;0.73;0.50;;;3.20;99.90;;;;;;5013844;28;20435;-71
2020/12/29 08:38:02;;;;;;;1.13;0.53;;;3.40;99.90;;;;;;5013663;28;20416;-70
2020/12/29 08:40:30;;;;;;;0.73;0.50;;;3.50;99.90;;;;;;5013860;28;20427;-70
2020/12/29 08:43:00;;;;;;;1.80;0.50;;;3.50;99.90;;;;;;5013515;28;20471;-71
2020/12/29 08:45:28;;;;;;;1.13;0.70;;;3.50;99.90;;;;;;5013355;28;20474;-71
2020/12/29 08:47:56;;;;;;;2.30;0.60;;;3.40;99.90;;;;;;5013682;28;20402;-72
2020/12/29 08:50:25;;;;;;;0.60;0.60;;;3.30;99.90;;;;;;5013460;28;20561;-71
2020/12/29 08:52:54;;;;;;;0.50;0.43;;;3.30;99.90;;;;;;5013374;28;20442;-71
2020/12/29 08:55:30;;;;;;;0.43;0.43;;;3.30;99.90;;;;;;5013350;28;20935;-72
2020/12/29 08:57:58;;;;;;;0.80;0.80;;;3.30;99.90;;;;;;5013638;28;20439;-72
2020/12/29 09:00:25;;;;;;;0.80;0.50;;;3.20;99.90;;;;;;5013595;28;20443;-72
2020/12/29 09:02:52;;;;;;;0.53;0.53;;;3.20;99.90;;;;;;5013471;28;20467;-72
2020/12/29 09:05:23;;;;;;;2.20;0.40;;;3.20;99.90;;;;;;5013247;28;20800;-72
2020/12/29 09:07:50;;;;;;;0.60;0.40;;;3.20;99.90;;;;;;5013525;28;20482;-72
2020/12/29 09:10:17;;;;;;;0.80;0.63;;;3.10;99.90;;;;;;5013159;28;20582;-72
2020/12/29 09:12:44;;;;;;;0.60;0.60;;;3.00;99.90;;;;;;5013388;28;20467;-72
2020/12/29 09:15:11;;;;;;;0.60;0.60;;;2.90;99.90;;;;;;5013167;28;20444;-72
2020/12/29 09:17:40;;;;;;;0.40;0.40;;;2.80;99.90;;;;;;5013435;28;20822;-70
2020/12/29 09:20:14;;;;;;;1.03;0.67;;;2.70;99.90;;;;;;5013120;28;20866;-72
2020/12/29 09:22:55;;;;;;;1.97;0.70;;;2.60;99.90;;;;;;4993708;28;20460;-72
2020/12/29 09:25:27;;;;;;;2.20;0.77;;;2.50;99.90;;;;;;4993437;28;20440;-72
2020/12/29 09:28:18;;;;;;;0.90;0.60;;;2.60;99.90;;;;;;4993774;28;20483;-72
2020/12/29 09:30:46;;;;;;;0.60;0.60;;;2.60;99.90;;;;;;4993770;28;20429;-72
2020/12/29 09:33:20;;;;;;;0.80;0.70;;;2.70;99.90;;;;;;4993285;28;20838;-72
2020/12/29 09:35:46;;;;;;;0.53;0.53;;;2.80;99.90;;;;;;4993351;28;20433;-72
2020/12/29 09:38:14;;;;;;;0.70;0.60;;;2.90;99.90;;;;;;4993351;28;20444;-72
2020/12/29 09:40:41;;;;;;;0.63;0.63;;;3.00;99.90;;;;;;4993477;28;20476;-72
2020/12/29 09:43:07;;;;;;;0.70;0.70;;;3.30;99.90;;;;;;4993842;28;20552;-72
2020/12/29 09:45:33;;;;;;;0.50;0.50;;;3.60;99.90;;;;;;4997092;28;20463;-72
2020/12/29 09:48:00;;;;;;;0.50;0.50;;;3.80;99.90;;;;;;4997296;28;20507;-72
2020/12/29 09:50:26;;;;;;;0.70;0.60;;;3.90;99.90;;;;;;4997231;28;20488;-72
2020/12/29 09:52:52;;;;;;;0.57;0.53;;;4.10;99.90;;;;;;4997177;28;20471;-72
2020/12/29 09:55:19;;;;;;;1.90;0.60;;;4.10;99.90;;;;;;4996916;28;21003;-72
2020/12/29 09:57:45;;;;;;;1.20;0.57;;;4.10;99.90;;;;;;4996828;28;20448;-72
2020/12/29 10:00:12;;;;;;;1.27;0.60;;;4.30;99.90;;;;;;4997122;28;20444;-72
2020/12/29 10:02:38;;;;;;;0.60;0.60;;;4.40;99.90;;;;;;4997044;28;20846;-72
2020/12/29 10:05:04;;;;;;;0.60;0.60;;;4.50;99.90;;;;;;4997014;28;20460;-72
2020/12/29 10:07:30;;;;;;;3.07;0.43;;;4.50;99.90;;;;;;4996672;28;20451;-72
2020/12/29 10:09:57;;;;;;;0.40;0.40;;;4.60;99.90;;;;;;4996917;28;20483;-72
2020/12/29 10:12:24;;;;;;;0.60;0.40;;;4.60;99.90;;;;;;4996849;28;20479;-72
2020/12/29 10:14:50;;;;;;;0.50;0.50;;;4.60;99.90;;;;;;4996521;28;20452;-71
2020/12/29 10:17:16;;;;;;;0.40;0.40;;;4.50;99.90;;;;;;4996845;28;20429;-71
2020/12/29 10:19:42;;;;;;;0.50;0.50;;;4.40;99.90;;;;;;4996775;28;20432;-72
2020/12/29 10:22:09;;;;;;;0.47;0.47;;;4.40;99.90;;;;;;5012835;28;20848;-71
2020/12/29 10:24:35;;;;;;;0.50;0.40;;;4.50;99.90;;;;;;5016026;28;20911;-71
2020/12/29 10:27:01;;;;;;;0.40;0.40;;;4.40;99.90;;;;;;5016273;28;20443;-68
2020/12/29 10:29:28;;;;;;;0.70;0.63;;;4.60;99.90;;;;;;5016187;28;20839;-68
2020/12/29 10:31:54;;;;;;;0.90;0.70;;;4.90;99.90;;;;;;5016110;28;20472;-68
2020/12/29 10:34:21;;;;;;;0.93;0.60;;;5.20;99.90;;;;;;5016097;28;20454;-68
2020/12/29 10:36:47;;;;;;;0.70;0.60;;;5.30;99.90;;;;;;5015793;28;20943;-68
2020/12/29 10:39:14;;;;;;;4.40;2.70;;;5.30;99.90;;;;;;5016029;28;20427;-68
2020/12/29 10:41:41;;;;;;;0.50;0.50;;;5.30;99.90;;;;;;5015854;28;20486;-68
2020/12/29 10:44:09;;;;;;;4.23;3.23;;;5.90;99.90;;;;;;5015957;28;20435;-68
2020/12/29 10:46:36;;;;;;;1.80;0.80;;;7.60;99.90;;;;;;5015638;28;20523;-69
2020/12/29 10:49:03;;;;;;;0.70;0.50;;;8.80;99.90;;;;;;5015324;28;20983;-68
2020/12/29 10:51:30;;;;;;;0.60;0.60;;;9.50;99.90;;;;;;5015482;28;20463;-68
2020/12/29 10:53:56;;;;;;;0.97;0.60;;;10.00;99.90;;;;;;5014926;28;20486;-69
2020/12/29 10:56:23;;;;;;;2.17;1.47;;;9.70;99.90;;;;;;5015727;28;20436;-68
2020/12/29 10:58:49;;;;;;;2.07;1.03;;;8.80;99.90;;;;;;5015629;28;20459;-68
2020/12/29 11:01:20;;;;;;;0.80;0.70;;;8.00;99.90;;;;;;5015696;28;20801;-69
2020/12/29 11:03:49;;;;;;;1.90;1.20;;;7.20;99.90;;;;;;5015472;28;20513;-68
2020/12/29 11:06:16;;;;;;;0.70;0.70;;;6.60;99.90;;;;;;5015299;28;20535;-68
2020/12/29 11:08:42;;;;;;;1.13;0.80;;;6.30;99.90;;;;;;5016038;28;20436;-68
2020/12/29 11:11:08;;;;;;;0.50;0.50;;;6.10;99.90;;;;;;5007031;28;20428;-68
2020/12/29 11:13:35;;;;;;;9.50;4.10;;;5.90;99.90;;;;;;5015172;28;20482;-68
2020/12/29 11:16:01;;;;;;;1.33;1.00;;;5.90;99.90;;;;;;5015086;28;20427;-71
2020/12/29 11:18:27;;;;;;;2.40;1.57;;;5.90;99.90;;;;;;5015057;28;20432;-71
2020/12/29 11:20:55;;;;;;;0.73;0.50;;;5.90;99.90;;;;;;5014726;28;20487;-70
2020/12/29 11:23:22;;;;;;;1.03;0.50;;;6.00;99.90;;;;;;5014982;28;20475;-70
2020/12/29 11:25:49;;;;;;;0.50;0.50;;;6.10;99.90;;;;;;5014996;28;20432;-71
2020/12/29 11:28:15;;;;;;;1.17;0.67;;;6.10;99.90;;;;;;5014994;28;20431;-71
2020/12/29 11:30:43;;;;;;;1.00;0.63;;;6.00;99.90;;;;;;5014608;28;20463;-71
2020/12/29 11:33:09;;;;;;;2.20;0.90;;;6.00;99.90;;;;;;5015364;28;20518;-70
2020/12/29 11:35:36;;;;;;;1.30;1.07;;;6.00;99.90;;;;;;5014943;28;20432;-70
2020/12/29 11:38:03;;;;;;;1.00;0.60;;;6.00;99.90;;;;;;5014869;28;20439;-70
2020/12/29 11:40:29;;;;;;;6.00;1.50;;;6.00;99.90;;;;;;5014490;28;20816;-70
2020/12/29 11:42:55;;;;;;;1.17;1.07;;;5.90;99.90;;;;;;5014638;28;20827;-70
2020/12/29 11:45:21;;;;;;;0.90;0.80;;;5.90;99.90;;;;;;5014592;28;20436;-70
2020/12/29 11:47:48;;;;;;;1.67;1.03;;;5.80;99.90;;;;;;5014558;28;20451;-71
2020/12/29 11:50:15;;;;;;;2.27;0.60;;;5.70;99.90;;;;;;5014929;28;20892;-70
2020/12/29 11:52:42;;;;;;;1.80;1.70;;;5.70;99.90;;;;;;5014512;28;20499;-70
2020/12/29 11:55:10;;;;;;;1.20;1.10;;;5.70;99.90;;;;;;5014631;28;20443;-70
2020/12/29 11:57:36;;;;;;;0.80;0.80;;;5.70;99.90;;;;;;5014472;28;20455;-70
2020/12/29 12:00:06;;;;;;;0.50;0.50;;;5.70;99.90;;;;;;5014435;28;20424;-70
2020/12/29 12:02:33;;;;;;;0.70;0.60;;;5.80;99.90;;;;;;5014039;28;20491;-70
2020/12/29 12:04:59;;;;;;;0.70;0.50;;;5.90;99.90;;;;;;5014261;28;20428;-70
2020/12/29 12:07:25;;;;;;;1.10;0.50;;;5.90;99.90;;;;;;5013676;28;20795;-70
2020/12/29 12:09:52;;;;;;;0.47;0.40;;;5.80;99.90;;;;;;5014302;28;20879;-70
2020/12/29 12:12:19;;;;;;;0.40;0.30;;;5.80;99.90;;;;;;5014173;28;20558;-70
2020/12/29 12:14:45;;;;;;;0.40;0.40;;;5.70;99.90;;;;;;5014216;28;20815;-70
2020/12/29 12:17:11;;;;;;;0.40;0.40;;;5.70;99.90;;;;;;5014203;28;20841;-70
2020/12/29 12:19:38;;;;;;;0.50;0.40;;;5.50;99.90;;;;;;5014193;28;20446;-70
2020/12/29 12:22:04;;;;;;;1.07;0.40;;;5.50;99.90;;;;;;5013670;28;20487;-70
2020/12/29 12:24:30;;;;;;;0.40;0.40;;;5.50;99.90;;;;;;5013779;28;20443;-69
2020/12/29 12:26:57;;;;;;;0.50;0.40;;;5.50;99.90;;;;;;5013949;28;20435;-69
2020/12/29 12:29:24;;;;;;;1.27;0.50;;;5.50;99.90;;;;;;5013892;28;20463;-70
2020/12/29 12:31:50;;;;;;;1.37;0.50;;;5.50;99.90;;;;;;5013800;28;20435;-70
2020/12/29 12:34:16;;;;;;;1.03;0.47;;;5.50;99.90;;;;;;5013882;28;20439;-70
2020/12/29 12:36:43;;;;;;;0.60;0.50;;;5.40;99.90;;;;;;5013551;28;20962;-70
2020/12/29 12:39:09;;;;;;;1.20;0.60;;;5.40;99.90;;;;;;5013841;28;20453;-69
2020/12/29 12:41:35;;;;;;;0.50;0.50;;;5.50;99.90;;;;;;5013612;28;20431;-70
2020/12/29 12:44:01;;;;;;;0.77;0.60;;;5.70;99.90;;;;;;5013688;28;20427;-70
2020/12/29 12:46:28;;;;;;;0.70;0.60;;;5.80;99.90;;;;;;5013402;28;20798;-70
2020/12/29 12:48:55;;;;;;;0.70;0.70;;;5.70;99.90;;;;;;5013280;28;20450;-70
2020/12/29 12:51:21;;;;;;;0.40;0.40;;;5.60;99.90;;;;;;5013406;28;20861;-70
2020/12/29 12:53:47;;;;;;;0.80;0.47;;;5.60;99.90;;;;;;5013665;28;20486;-70
2020/12/29 12:56:15;;;;;;;0.50;0.50;;;5.60;99.90;;;;;;5013319;28;21006;-70
2020/12/29 12:58:42;;;;;;;0.83;0.80;;;5.70;99.90;;;;;;5013906;28;20432;-70